Time;durP1;ratioP1;P1;durP2;ratioP2;P2;SDS_P1;SDS_P2;PMS_P1;PMS_P2;Temp;Humidity;BMP_temperature;BMP_pressure;BME280_temperature;BME280_humidity;BME280_pressure;Samples;Min_cycle;Max_cycle;Signal;HPM_P1;HPM_P2
2022/06/10 00:02:21;;;;;;;1.02;0.30;;;20.50;70.00;;;;;;5026440;28;20032;-73
2022/06/10 00:04:46;;;;;;;2.00;0.20;;;20.40;70.00;;;;;;5027536;28;20052;-72
2022/06/10 00:07:12;;;;;;;1.50;0.28;;;20.50;69.60;;;;;;5026528;28;20052;-72
2022/06/10 00:09:38;;;;;;;1.50;0.30;;;20.50;69.50;;;;;;5027005;28;20038;-73
2022/06/10 00:12:04;;;;;;;3.03;0.52;;;20.50;69.90;;;;;;5029778;28;20043;-72
2022/06/10 00:14:30;;;;;;;0.40;0.20;;;20.50;69.60;;;;;;5031006;28;20033;-72
2022/06/10 00:16:56;;;;;;;2.50;0.35;;;20.50;69.70;;;;;;5022611;28;20029;-72
2022/06/10 00:19:22;;;;;;;0.98;0.20;;;20.50;70.00;;;;;;5029378;28;20030;-72
2022/06/10 00:21:47;;;;;;;1.75;0.35;;;20.50;69.60;;;;;;5029968;28;20041;-72
2022/06/10 00:24:13;;;;;;;2.55;0.50;;;20.50;69.40;;;;;;5027705;28;20064;-72
2022/06/10 00:26:38;;;;;;;1.40;0.28;;;20.50;69.40;;;;;;5031775;28;20056;-72
2022/06/10 00:29:04;;;;;;;1.70;0.30;;;20.50;69.70;;;;;;5029658;28;20030;-72
2022/06/10 00:31:30;;;;;;;1.85;0.35;;;20.50;69.70;;;;;;5032920;28;20503;-72
2022/06/10 00:33:55;;;;;;;1.17;0.30;;;20.50;70.00;;;;;;5031024;28;20033;-73
2022/06/10 00:36:22;;;;;;;0.98;0.22;;;20.50;69.30;;;;;;5032563;28;20071;-72
2022/06/10 00:38:48;;;;;;;2.22;0.60;;;20.40;69.50;;;;;;5028679;28;20037;-72
2022/06/10 00:41:14;;;;;;;0.82;0.30;;;20.50;69.70;;;;;;5031230;28;20472;-72
2022/06/10 00:43:40;;;;;;;2.42;0.30;;;20.40;69.80;;;;;;5030484;28;20396;-72
2022/06/10 00:46:16;;;;;;;4.07;0.50;;;20.40;69.60;;;;;;5030528;28;20486;-72
2022/06/10 00:48:57;;;;;;;3.25;0.30;;;20.40;69.70;;;;;;5026680;28;20469;-72
2022/06/10 00:51:28;;;;;;;0.80;0.35;;;20.40;69.80;;;;;;5030755;28;20053;-72
2022/06/10 00:54:18;;;;;;;2.08;0.28;;;20.40;69.80;;;;;;5024823;28;20439;-73
2022/06/10 00:56:55;;;;;;;2.90;0.43;;;20.40;69.40;;;;;;5026123;28;20049;-72
2022/06/10 00:59:25;;;;;;;1.08;0.30;;;20.40;69.80;;;;;;5028169;28;20053;-72
2022/06/10 01:02:05;;;;;;;0.70;0.25;;;20.40;69.50;;;;;;5023571;28;20388;-73
2022/06/10 01:04:30;;;;;;;0.55;0.20;;;20.40;70.10;;;;;;5031214;28;20509;-73
2022/06/10 01:06:57;;;;;;;0.90;0.40;;;20.30;70.00;;;;;;5022067;28;20069;-73
2022/06/10 01:09:24;;;;;;;1.67;0.50;;;20.30;70.90;;;;;;5032038;28;20029;-72
2022/06/10 01:12:12;;;;;;;1.15;0.40;;;20.30;70.10;;;;;;5026797;28;20044;-73
2022/06/10 01:14:56;;;;;;;2.33;0.40;;;20.30;70.20;;;;;;5032115;28;20641;-72
2022/06/10 01:17:27;;;;;;;0.63;0.28;;;20.20;70.90;;;;;;5021599;28;20040;-73
2022/06/10 01:20:31;;;;;;;1.50;0.32;;;20.20;71.20;;;;;;5029571;28;20033;-72
2022/06/10 01:23:33;;;;;;;2.72;0.55;;;20.20;71.00;;;;;;5031977;28;20021;-72
2022/06/10 01:27:47;;;;;;;0.95;0.30;;;20.30;70.40;;;;;;5025990;28;20037;-72
2022/06/10 01:29:41;;;;;;;1.58;0.35;;;20.40;70.30;;;;;;5025854;28;20522;-73
2022/06/10 01:32:34;;;;;;;1.13;0.50;;;20.30;70.60;;;;;;5022972;28;20037;-73
2022/06/10 01:35:23;;;;;;;1.17;0.30;;;20.50;69.80;;;;;;5002408;28;20053;-72
2022/06/10 01:38:04;;;;;;;0.55;0.25;;;20.40;69.80;;;;;;5031225;28;20029;-72
2022/06/10 01:40:44;;;;;;;0.73;0.30;;;20.40;70.30;;;;;;5024692;28;20044;-72
2022/06/10 01:43:14;;;;;;;1.63;0.40;;;20.40;69.80;;;;;;5031014;28;20079;-73
2022/06/10 01:46:25;;;;;;;2.42;0.52;;;20.40;70.10;;;;;;5022396;28;20479;-73
2022/06/10 01:49:18;;;;;;;2.10;0.40;;;20.30;70.80;;;;;;5029690;28;20553;-73
2022/06/10 01:52:02;;;;;;;2.05;0.22;;;20.20;70.60;;;;;;5026157;28;20038;-73
2022/06/10 01:54:36;;;;;;;0.70;0.30;;;20.20;70.90;;;;;;5020900;28;20539;-73
2022/06/10 01:57:10;;;;;;;1.55;0.22;;;20.10;72.10;;;;;;5029902;28;20029;-73
2022/06/10 02:00:03;;;;;;;1.75;0.55;;;20.10;71.50;;;;;;5021159;28;20033;-73
2022/06/10 02:02:33;;;;;;;1.05;0.25;;;20.00;71.10;;;;;;5015905;28;20095;-73
2022/06/10 02:05:09;;;;;;;2.15;0.30;;;20.10;71.40;;;;;;5029693;28;20038;-73
2022/06/10 02:07:42;;;;;;;0.90;0.30;;;20.10;70.80;;;;;;5025833;28;20037;-73
2022/06/10 02:10:23;;;;;;;4.13;0.30;;;20.10;72.00;;;;;;5019325;28;20036;-73
2022/06/10 02:13:00;;;;;;;1.02;0.20;;;20.00;72.00;;;;;;5029497;28;20026;-73
2022/06/10 02:15:38;;;;;;;0.63;0.30;;;20.00;71.60;;;;;;5030051;28;20057;-73
2022/06/10 02:18:13;;;;;;;3.47;0.30;;;20.00;72.40;;;;;;5030146;28;20028;-73
2022/06/10 02:20:47;;;;;;;3.63;0.90;;;19.90;72.90;;;;;;5028280;28;20037;-73
2022/06/10 02:23:16;;;;;;;;;;;19.70;73.30;;;;;;5024815;28;20497;-73
2022/06/10 02:25:46;;;;;;;2.08;0.25;;;19.80;72.20;;;;;;5027007;28;20385;-73
2022/06/10 02:28:18;;;;;;;0.32;0.13;;;19.90;71.90;;;;;;5023722;28;20030;-73
2022/06/10 02:31:00;;;;;;;1.10;0.45;;;19.90;72.60;;;;;;5030259;28;20060;-72
2022/06/10 02:33:26;;;;;;;0.80;0.22;;;19.70;73.00;;;;;;5030942;28;20041;-73
2022/06/10 02:36:07;;;;;;;0.65;0.20;;;19.80;72.60;;;;;;5026745;28;20045;-73
2022/06/10 02:38:44;;;;;;;1.05;0.20;;;19.70;72.50;;;;;;5032570;28;20116;-73
2022/06/10 02:41:15;;;;;;;1.55;0.20;;;19.70;73.20;;;;;;5026241;28;20104;-73
2022/06/10 02:43:52;;;;;;;1.05;0.20;;;19.50;74.00;;;;;;5032869;28;20041;-73
2022/06/10 02:46:31;;;;;;;0.90;0.38;;;19.50;73.90;;;;;;5023294;28;20546;-73
2022/06/10 02:49:06;;;;;;;0.55;0.20;;;19.50;73.40;;;;;;5032152;28;20041;-72
2022/06/10 02:51:31;;;;;;;;;;;19.30;74.40;;;;;;5029934;28;20025;-73
2022/06/10 02:53:59;;;;;;;1.90;0.50;;;19.60;72.80;;;;;;5027617;28;19955;-73
2022/06/10 02:56:27;;;;;;;1.92;0.30;;;19.60;73.20;;;;;;5033330;28;20541;-73
2022/06/10 03:02:07;;;;;;;1.80;0.22;;;19.70;73.00;;;;;;5024634;28;20487;-72
2022/06/10 03:04:32;;;;;;;1.92;0.20;;;19.70;72.80;;;;;;5023914;28;20037;-72
2022/06/10 03:07:30;;;;;;;0.10;0.10;;;19.70;73.60;;;;;;5019261;28;20108;-72
2022/06/10 03:10:19;;;;;;;1.63;0.30;;;19.70;72.90;;;;;;5022658;28;20472;-73
2022/06/10 03:13:00;;;;;;;0.43;0.10;;;19.60;73.50;;;;;;5029914;28;20038;-73
2022/06/10 03:16:00;;;;;;;5.57;0.43;;;19.80;72.50;;;;;;5026808;28;20484;-73
2022/06/10 03:18:41;;;;;;;0.30;0.10;;;19.70;73.10;;;;;;5022882;28;20069;-72
2022/06/10 03:21:39;;;;;;;1.75;0.30;;;19.70;73.60;;;;;;5018683;28;20052;-73
2022/06/10 03:24:20;;;;;;;0.82;0.25;;;19.60;73.60;;;;;;5027690;28;20365;-73
2022/06/10 03:26:55;;;;;;;0.75;0.22;;;19.70;73.10;;;;;;5022759;28;20524;-72
2022/06/10 03:30:01;;;;;;;2.15;0.25;;;19.60;73.60;;;;;;5023180;28;20105;-72
2022/06/10 03:32:36;;;;;;;1.35;0.20;;;19.60;73.20;;;;;;4984367;28;20630;-72
2022/06/10 03:35:18;;;;;;;1.10;0.25;;;19.70;72.80;;;;;;5015665;28;20042;-72
2022/06/10 03:37:45;;;;;;;3.40;0.32;;;19.70;73.10;;;;;;5029136;28;20029;-72
2022/06/10 03:40:25;;;;;;;0.90;0.20;;;19.70;73.60;;;;;;5019164;28;20029;-73
2022/06/10 03:42:54;;;;;;;1.30;0.30;;;19.60;74.00;;;;;;5028927;28;20574;-72
2022/06/10 03:45:23;;;;;;;1.33;0.15;;;19.30;74.70;;;;;;5024840;28;20037;-72
2022/06/10 03:47:49;;;;;;;0.73;0.20;;;19.50;73.60;;;;;;5022062;28;20127;-73
2022/06/10 03:50:19;;;;;;;1.08;0.20;;;19.50;73.80;;;;;;5022531;28;20543;-72
2022/06/10 03:52:45;;;;;;;0.75;0.10;;;19.60;73.40;;;;;;5021363;28;20590;-72
2022/06/10 03:55:15;;;;;;;0.50;0.10;;;19.60;73.10;;;;;;5026902;28;20037;-72
2022/06/10 03:57:41;;;;;;;1.05;0.10;;;19.70;73.50;;;;;;5019575;28;20399;-72
2022/06/10 04:00:08;;;;;;;0.52;0.17;;;19.70;73.00;;;;;;5026011;28;20029;-72
2022/06/10 04:02:33;;;;;;;0.47;0.20;;;19.80;72.60;;;;;;5019668;28;20420;-72
2022/06/10 04:04:59;;;;;;;2.25;0.40;;;19.60;74.50;;;;;;5026027;28;20061;-72
2022/06/10 04:07:25;;;;;;;1.15;0.20;;;19.50;74.10;;;;;;5018267;28;20356;-72
2022/06/10 04:09:50;;;;;;;1.08;0.30;;;19.50;74.80;;;;;;5027896;28;20044;-72
2022/06/10 04:12:16;;;;;;;0.98;0.20;;;19.60;74.20;;;;;;5021230;28;20316;-72
2022/06/10 04:14:43;;;;;;;0.75;0.30;;;19.60;75.40;;;;;;5028230;28;20029;-72
2022/06/10 04:17:10;;;;;;;0.80;0.15;;;19.40;75.90;;;;;;5020173;28;20412;-72
2022/06/10 04:19:35;;;;;;;0.57;0.20;;;19.50;75.50;;;;;;5024115;28;20048;-72
2022/06/10 04:22:03;;;;;;;2.92;0.22;;;19.50;74.70;;;;;;5027863;28;20029;-72
2022/06/10 04:24:29;;;;;;;0.28;0.10;;;19.40;75.00;;;;;;5026624;28;20108;-72
2022/06/10 04:26:54;;;;;;;0.40;0.30;;;19.40;77.10;;;;;;5023354;28;20090;-72
2022/06/10 04:29:20;;;;;;;2.20;0.22;;;19.20;78.60;;;;;;5028532;28;20121;-72
2022/06/10 04:31:46;;;;;;;1.20;0.20;;;19.30;75.30;;;;;;5021005;28;20057;-72
2022/06/10 04:34:12;;;;;;;1.35;0.20;;;19.60;74.70;;;;;;5027890;28;20033;-73
2022/06/10 04:36:38;;;;;;;0.65;0.15;;;19.60;75.90;;;;;;5019100;28;20041;-72
2022/06/10 04:39:03;;;;;;;1.73;0.28;;;19.60;75.00;;;;;;5024199;28;20345;-72
2022/06/10 04:41:29;;;;;;;0.70;0.30;;;19.50;75.30;;;;;;5021044;28;20049;-73
2022/06/10 04:43:55;;;;;;;1.65;0.17;;;19.40;76.00;;;;;;5028703;28;20135;-72
2022/06/10 04:46:26;;;;;;;1.48;0.25;;;19.50;76.30;;;;;;5023969;28;20665;-72
2022/06/10 04:48:53;;;;;;;0.93;0.20;;;19.50;76.20;;;;;;5027894;28;20051;-72
2022/06/10 04:51:19;;;;;;;1.80;0.13;;;19.40;77.90;;;;;;5021430;28;20030;-72
2022/06/10 04:53:44;;;;;;;2.13;0.25;;;19.30;74.60;;;;;;5017667;28;20029;-72
2022/06/10 04:56:10;;;;;;;0.10;0.00;;;19.60;74.70;;;;;;5026449;28;20039;-72
2022/06/10 04:58:36;;;;;;;0.60;0.20;;;19.40;76.20;;;;;;5029942;28;20029;-72
2022/06/10 05:01:02;;;;;;;0.60;0.15;;;19.30;78.20;;;;;;5026789;28;20037;-72
2022/06/10 05:03:27;;;;;;;0.77;0.17;;;19.30;79.20;;;;;;5026851;28;20029;-72
2022/06/10 05:05:53;;;;;;;1.65;0.20;;;19.10;79.60;;;;;;5032498;28;20022;-72
2022/06/10 05:08:19;;;;;;;0.57;0.20;;;19.10;78.70;;;;;;5030144;28;20030;-73
2022/06/10 05:10:47;;;;;;;1.27;0.60;;;19.20;78.50;;;;;;5022324;28;20068;-72
2022/06/10 05:13:16;;;;;;;0.75;0.20;;;19.30;75.80;;;;;;5020133;28;20441;-72
2022/06/10 05:15:42;;;;;;;1.30;0.60;;;19.50;76.80;;;;;;5025663;28;20084;-72
2022/06/10 05:18:08;;;;;;;1.63;0.20;;;19.50;76.50;;;;;;5027167;28;20512;-73
2022/06/10 05:20:38;;;;;;;6.93;0.70;;;19.50;76.70;;;;;;5018424;28;20057;-72
2022/06/10 05:23:04;;;;;;;0.47;0.20;;;19.40;79.00;;;;;;5021602;28;20080;-73
2022/06/10 05:25:31;;;;;;;0.85;0.10;;;19.50;77.30;;;;;;5027516;28;20035;-70
2022/06/10 05:27:57;;;;;;;0.45;0.22;;;19.70;75.50;;;;;;5023084;28;20033;-72
2022/06/10 05:30:26;;;;;;;1.10;0.50;;;19.70;74.90;;;;;;5027257;28;20489;-72
2022/06/10 05:32:52;;;;;;;0.47;0.17;;;19.70;75.40;;;;;;5027100;28;20042;-74
2022/06/10 05:35:19;;;;;;;0.77;0.43;;;19.80;77.60;;;;;;5022119;28;20092;-72
2022/06/10 05:37:46;;;;;;;0.95;0.25;;;19.60;79.60;;;;;;5014279;28;20645;-73
2022/06/10 05:40:13;;;;;;;0.85;0.35;;;19.60;79.80;;;;;;5016805;28;20068;-73
2022/06/10 05:42:40;;;;;;;3.05;0.57;;;19.60;79.10;;;;;;5028341;28;20037;-73
2022/06/10 05:45:07;;;;;;;3.00;0.20;;;19.70;76.40;;;;;;5030089;28;20128;-73
2022/06/10 05:47:34;;;;;;;4.13;0.40;;;19.60;76.00;;;;;;5027501;28;20072;-72
2022/06/10 05:50:05;;;;;;;1.02;0.45;;;19.80;76.30;;;;;;5026674;28;20029;-73
2022/06/10 05:52:32;;;;;;;1.08;0.10;;;19.70;77.30;;;;;;5024068;28;20507;-73
2022/06/10 05:55:01;;;;;;;0.57;0.13;;;19.70;78.40;;;;;;5023228;28;20034;-73
2022/06/10 05:57:28;;;;;;;0.65;0.25;;;19.90;75.90;;;;;;5023682;28;20041;-73
2022/06/10 05:59:54;;;;;;;0.85;0.30;;;20.10;75.50;;;;;;5021783;28;20072;-73
2022/06/10 06:02:21;;;;;;;0.10;0.10;;;20.10;75.70;;;;;;5023284;28;20445;-73
2022/06/10 06:04:48;;;;;;;0.45;0.28;;;20.00;75.50;;;;;;5022106;28;20416;-73
2022/06/10 06:07:20;;;;;;;0.80;0.30;;;20.00;75.70;;;;;;5025107;28;20041;-73
2022/06/10 06:09:46;;;;;;;0.75;0.17;;;19.90;75.10;;;;;;5027084;28;20057;-73
2022/06/10 06:12:12;;;;;;;2.03;0.20;;;19.80;75.30;;;;;;5027057;28;20067;-73
2022/06/10 06:14:37;;;;;;;0.95;0.45;;;19.80;75.10;;;;;;5027577;28;20073;-73
2022/06/10 06:17:04;;;;;;;0.82;0.10;;;20.00;74.90;;;;;;5023854;28;20037;-73
2022/06/10 06:19:31;;;;;;;0.75;0.28;;;20.00;76.10;;;;;;5027635;28;20476;-73
2022/06/10 06:21:57;;;;;;;1.67;0.35;;;20.10;75.10;;;;;;5026888;28;20641;-73
2022/06/10 06:24:23;;;;;;;1.30;0.17;;;20.20;75.60;;;;;;5025382;28;20112;-73
2022/06/10 06:26:49;;;;;;;1.50;0.20;;;20.20;75.60;;;;;;5026612;28;20041;-73
2022/06/10 06:29:15;;;;;;;0.22;0.00;;;20.20;76.20;;;;;;5025198;28;20107;-73
2022/06/10 06:31:41;;;;;;;1.65;0.10;;;20.30;74.30;;;;;;5025660;28;20649;-73
2022/06/10 06:34:07;;;;;;;0.68;0.17;;;20.40;74.10;;;;;;5016921;28;20095;-73
2022/06/10 06:36:45;;;;;;;0.85;0.20;;;20.50;74.60;;;;;;5025452;28;20033;-73
2022/06/10 06:39:16;;;;;;;0.98;0.40;;;20.60;75.60;;;;;;5026440;28;20445;-72
2022/06/10 06:41:42;;;;;;;1.63;0.20;;;20.70;75.70;;;;;;5026239;28;20175;-73
2022/06/10 06:44:08;;;;;;;0.47;0.15;;;20.70;75.30;;;;;;5027177;28;20117;-73
2022/06/10 06:46:35;;;;;;;1.55;0.30;;;20.90;76.20;;;;;;5026917;28;20044;-73
2022/06/10 06:49:03;;;;;;;0.82;0.30;;;21.10;76.50;;;;;;5024613;28;20033;-73
2022/06/10 06:51:28;;;;;;;0.13;0.03;;;20.80;73.50;;;;;;5013989;28;20034;-73
2022/06/10 06:53:54;;;;;;;1.10;0.30;;;21.00;74.30;;;;;;5022070;28;20091;-73
2022/06/10 06:56:20;;;;;;;0.52;0.20;;;21.10;75.10;;;;;;5026627;28;20096;-73
2022/06/10 06:58:46;;;;;;;0.93;0.20;;;21.10;73.80;;;;;;5027256;28;20391;-73
2022/06/10 07:01:11;;;;;;;0.82;0.15;;;21.20;76.10;;;;;;5027312;28;20025;-73
2022/06/10 07:03:37;;;;;;;0.57;0.20;;;21.40;75.80;;;;;;5013886;28;20041;-73
2022/06/10 07:06:03;;;;;;;0.20;0.00;;;21.20;75.80;;;;;;5026515;28;20116;-72
2022/06/10 07:08:31;;;;;;;0.55;0.08;;;21.20;74.30;;;;;;5022265;28;20410;-71
2022/06/10 07:10:59;;;;;;;0.90;0.20;;;21.40;75.30;;;;;;5026975;28;20049;-71
2022/06/10 07:13:26;;;;;;;0.20;0.10;;;21.50;74.50;;;;;;5022103;28;20100;-71
2022/06/10 07:15:52;;;;;;;0.40;0.13;;;21.80;73.70;;;;;;5026987;28;20132;-72
2022/06/10 07:18:18;;;;;;;0.13;0.10;;;22.30;73.60;;;;;;5025388;28;20511;-72
2022/06/10 07:20:44;;;;;;;2.03;0.60;;;22.60;72.90;;;;;;5027216;28;20037;-72
2022/06/10 07:23:10;;;;;;;2.72;0.22;;;22.60;72.20;;;;;;5026715;28;20093;-72
2022/06/10 07:25:36;;;;;;;1.77;0.40;;;22.70;71.60;;;;;;5025776;28;20053;-73
2022/06/10 07:28:02;;;;;;;3.33;0.20;;;23.10;71.90;;;;;;5026911;28;20087;-73
2022/06/10 07:30:30;;;;;;;0.65;0.20;;;23.20;72.40;;;;;;5026027;28;20811;-72
2022/06/10 07:32:57;;;;;;;3.95;0.40;;;22.80;72.10;;;;;;5026981;28;20083;-73
2022/06/10 07:35:23;;;;;;;0.90;0.15;;;23.90;71.00;;;;;;5026746;28;20456;-73
2022/06/10 07:37:49;;;;;;;1.48;0.15;;;24.20;72.00;;;;;;5026688;28;20043;-72
2022/06/10 07:43:13;;;;;;;0.50;0.20;;;25.40;68.70;;;;;;5012645;28;20408;-73
2022/06/10 07:45:39;;;;;;;1.50;0.25;;;25.30;67.40;;;;;;5026001;28;20112;-73
2022/06/10 07:48:06;;;;;;;1.10;0.20;;;25.30;69.70;;;;;;5026016;28;20060;-72
2022/06/10 07:50:32;;;;;;;1.33;0.25;;;25.20;70.40;;;;;;5025287;28;20029;-73
2022/06/10 07:52:58;;;;;;;1.70;0.20;;;25.10;69.90;;;;;;5018197;28;20041;-72
2022/06/10 07:55:24;;;;;;;4.22;0.20;;;24.90;69.40;;;;;;5022480;28;20037;-73
2022/06/10 07:57:51;;;;;;;0.63;0.20;;;24.40;69.60;;;;;;5025452;28;20044;-73
2022/06/10 08:00:17;;;;;;;2.40;0.22;;;23.80;69.40;;;;;;5023025;28;20037;-73
2022/06/10 08:02:43;;;;;;;1.27;0.20;;;23.60;69.60;;;;;;5024629;28;20531;-73
2022/06/10 08:05:13;;;;;;;1.27;0.10;;;23.80;69.90;;;;;;5022828;28;20104;-73
2022/06/10 08:07:40;;;;;;;0.32;0.20;;;24.00;70.10;;;;;;5025178;28;20100;-73
2022/06/10 08:10:12;;;;;;;1.45;0.60;;;23.50;70.10;;;;;;5025621;28;20641;-73
2022/06/10 08:12:38;;;;;;;2.63;0.30;;;23.80;69.40;;;;;;5025865;28;20043;-73
2022/06/10 08:15:04;;;;;;;1.05;0.20;;;24.00;71.80;;;;;;5025292;28;20030;-73
2022/06/10 08:17:29;;;;;;;6.95;0.30;;;23.80;70.00;;;;;;5016215;28;20136;-73
2022/06/10 08:19:55;;;;;;;0.43;0.10;;;23.90;70.10;;;;;;5021987;28;20638;-73
2022/06/10 08:22:33;;;;;;;0.38;0.10;;;24.00;71.30;;;;;;5022459;28;20468;-73
2022/06/10 08:25:00;;;;;;;0.17;0.00;;;24.00;69.50;;;;;;5021371;28;20036;-73
2022/06/10 08:27:26;;;;;;;0.85;0.35;;;24.30;70.40;;;;;;5020249;28;20636;-73
2022/06/10 08:29:52;;;;;;;0.22;0.10;;;24.00;69.60;;;;;;5022709;28;20050;-72
2022/06/10 08:32:17;;;;;;;0.70;0.28;;;24.20;69.50;;;;;;5025834;28;20037;-73
2022/06/10 08:34:43;;;;;;;1.17;0.20;;;24.50;70.10;;;;;;5021345;28;20029;-73
2022/06/10 08:37:09;;;;;;;0.75;0.20;;;24.40;70.20;;;;;;5023233;28;20108;-73
2022/06/10 08:39:35;;;;;;;0.43;0.30;;;24.50;69.60;;;;;;5024458;28;20060;-73
2022/06/10 08:42:13;;;;;;;0.70;0.20;;;24.40;71.00;;;;;;5023186;28;20487;-73
2022/06/10 08:44:54;;;;;;;1.52;0.45;;;24.60;69.30;;;;;;5025473;28;20029;-73
2022/06/10 08:47:57;;;;;;;0.52;0.30;;;24.80;70.10;;;;;;5022682;28;20043;-73
2022/06/10 08:50:41;;;;;;;1.60;0.40;;;25.10;70.00;;;;;;4999814;28;20057;-73
2022/06/10 08:53:21;;;;;;;1.40;0.30;;;25.20;71.10;;;;;;5024081;28;20026;-73
2022/06/10 08:56:14;;;;;;;1.17;0.20;;;25.30;69.70;;;;;;5023229;28;20075;-73
2022/06/10 08:58:42;;;;;;;0.95;0.30;;;25.40;73.70;;;;;;5022248;28;20116;-73
2022/06/10 09:01:18;;;;;;;2.78;0.43;;;25.50;71.70;;;;;;5024153;28;20029;-73
2022/06/10 09:03:54;;;;;;;1.00;0.15;;;25.50;71.30;;;;;;5021376;28;20359;-73
2022/06/10 09:06:28;;;;;;;2.70;0.28;;;25.40;69.60;;;;;;5023842;28;20083;-73
2022/06/10 09:08:59;;;;;;;1.20;0.30;;;25.00;68.10;;;;;;5021199;28;21119;-73
2022/06/10 09:11:47;;;;;;;0.52;0.25;;;25.30;70.40;;;;;;5021472;28;20029;-72
2022/06/10 09:14:22;;;;;;;1.00;0.30;;;25.00;69.30;;;;;;5023182;28;20088;-73
2022/06/10 09:17:05;;;;;;;1.05;0.40;;;25.50;70.10;;;;;;5024867;28;20037;-73
2022/06/10 09:19:58;;;;;;;1.35;0.40;;;25.60;71.10;;;;;;5025037;28;20384;-73
2022/06/10 09:22:33;;;;;;;1.30;0.30;;;25.50;69.20;;;;;;5022590;28;20032;-73
2022/06/10 09:25:23;;;;;;;1.95;0.22;;;25.60;69.50;;;;;;5021033;28;20087;-73
2022/06/10 09:27:53;;;;;;;0.38;0.22;;;25.90;70.80;;;;;;5024442;28;20042;-72
2022/06/10 09:30:24;;;;;;;0.45;0.30;;;25.50;68.80;;;;;;5023500;28;20045;-73
2022/06/10 09:33:37;;;;;;;0.30;0.10;;;25.90;70.30;;;;;;5025443;28;20084;-73
2022/06/10 09:36:23;;;;;;;9.05;0.40;;;25.80;67.60;;;;;;5024597;28;20064;-72
2022/06/10 09:39:03;;;;;;;4.47;0.63;;;26.10;70.10;;;;;;5027044;28;20071;-73
2022/06/10 09:41:34;;;;;;;0.77;0.13;;;26.00;70.00;;;;;;5034139;28;20040;-72
2022/06/10 09:44:15;;;;;;;0.22;0.13;;;25.80;68.70;;;;;;5033842;28;20033;-73
2022/06/10 09:47:00;;;;;;;1.25;0.28;;;25.50;68.70;;;;;;5018644;28;20040;-73
2022/06/10 09:49:44;;;;;;;0.10;0.10;;;25.60;68.70;;;;;;5021037;28;20132;-73
2022/06/10 09:52:31;;;;;;;0.15;0.08;;;26.00;68.50;;;;;;5022665;28;20029;-73
2022/06/10 09:55:32;;;;;;;0.60;0.30;;;26.00;68.90;;;;;;5023555;28;20041;-73
2022/06/10 09:58:20;;;;;;;0.50;0.22;;;26.30;70.20;;;;;;5014923;28;20053;-73
2022/06/10 10:01:02;;;;;;;2.17;0.60;;;26.50;69.40;;;;;;5020913;28;20051;-73
2022/06/10 10:03:37;;;;;;;1.27;0.40;;;26.50;69.20;;;;;;5022329;28;20041;-73
2022/06/10 10:06:06;;;;;;;2.88;1.38;;;26.30;69.10;;;;;;5023830;28;20064;-73
2022/06/10 10:08:35;;;;;;;0.95;0.20;;;26.70;68.70;;;;;;5023517;28;20503;-73
2022/06/10 10:11:21;;;;;;;1.08;0.20;;;26.60;67.70;;;;;;5015646;28;20048;-73
2022/06/10 10:14:04;;;;;;;0.40;0.20;;;26.70;69.90;;;;;;5021301;28;20499;-73
2022/06/10 10:16:36;;;;;;;0.65;0.20;;;27.10;71.30;;;;;;5021391;28;20037;-73
2022/06/10 10:19:19;;;;;;;0.28;0.10;;;27.10;70.30;;;;;;5023516;28;20029;-73
2022/06/10 10:22:22;;;;;;;0.68;0.35;;;27.10;70.70;;;;;;5021835;28;20108;-73
2022/06/10 10:24:48;;;;;;;0.63;0.20;;;27.40;70.40;;;;;;5022678;28;20073;-73
2022/06/10 10:27:34;;;;;;;0.82;0.30;;;27.80;69.70;;;;;;5023680;28;20091;-73
2022/06/10 10:30:13;;;;;;;1.42;0.40;;;27.50;69.60;;;;;;5023250;28;20065;-73
2022/06/10 10:32:42;;;;;;;1.75;0.30;;;27.60;70.10;;;;;;5019892;28;20026;-73
2022/06/10 10:35:34;;;;;;;0.40;0.30;;;27.30;67.60;;;;;;5022638;28;20104;-73
2022/06/10 10:38:04;;;;;;;0.52;0.30;;;27.50;68.30;;;;;;5023410;28;20057;-73
2022/06/10 10:40:39;;;;;;;0.20;0.10;;;27.60;68.10;;;;;;5024682;28;20108;-73
2022/06/10 10:43:20;;;;;;;0.30;0.10;;;27.40;69.40;;;;;;5024940;28;20120;-73
2022/06/10 10:46:28;;;;;;;0.20;0.10;;;27.30;69.50;;;;;;5026143;28;20538;-73
2022/06/10 10:48:59;;;;;;;0.70;0.57;;;27.50;70.40;;;;;;5003229;28;20144;-73
2022/06/10 10:51:35;;;;;;;0.35;0.22;;;27.50;68.40;;;;;;5024417;28;20026;-73
2022/06/10 10:54:12;;;;;;;0.52;0.20;;;27.50;68.40;;;;;;5028812;28;20199;-73
2022/06/10 10:56:47;;;;;;;0.85;0.40;;;27.50;68.10;;;;;;5027969;28;20087;-73
2022/06/10 10:59:31;;;;;;;1.88;0.35;;;27.70;68.20;;;;;;5030342;28;20029;-73
2022/06/10 11:01:58;;;;;;;0.55;0.35;;;27.70;70.10;;;;;;5026931;28;20546;-73
2022/06/10 11:04:34;;;;;;;3.78;0.55;;;27.90;70.60;;;;;;5026931;28;20029;-73
2022/06/10 11:07:04;;;;;;;0.47;0.20;;;28.10;68.50;;;;;;5022961;28;20064;-73
2022/06/10 11:09:30;;;;;;;2.40;0.40;;;28.20;70.50;;;;;;5028792;28;20502;-73
2022/06/10 11:12:01;;;;;;;0.40;0.10;;;27.80;69.70;;;;;;5029617;28;20043;-73
2022/06/10 11:14:32;;;;;;;1.30;0.13;;;28.20;69.80;;;;;;5028092;28;20033;-74
2022/06/10 11:17:11;;;;;;;1.55;0.22;;;28.20;69.40;;;;;;5029651;28;20100;-73
2022/06/10 11:19:37;;;;;;;0.90;0.30;;;27.60;69.20;;;;;;5029982;28;20124;-73
2022/06/10 11:22:19;;;;;;;0.90;0.20;;;27.80;68.80;;;;;;5029444;28;20440;-73
2022/06/10 11:25:14;;;;;;;0.10;0.10;;;27.90;69.40;;;;;;5020090;28;20033;-73
2022/06/10 11:28:01;;;;;;;0.95;0.30;;;27.90;69.40;;;;;;5024552;28;20132;-74
2022/06/10 11:30:42;;;;;;;0.40;0.10;;;27.80;69.70;;;;;;5021628;28;20696;-74
2022/06/10 11:33:18;;;;;;;0.20;0.20;;;28.00;69.60;;;;;;5028762;28;20045;-74
2022/06/10 11:36:07;;;;;;;1.17;0.30;;;27.90;68.80;;;;;;5029418;28;20506;-73
2022/06/10 11:38:37;;;;;;;1.13;0.22;;;27.80;69.10;;;;;;5029218;28;20037;-74
2022/06/10 11:41:26;;;;;;;0.38;0.20;;;27.80;68.70;;;;;;5028580;28;20467;-75
2022/06/10 11:44:02;;;;;;;0.20;0.20;;;28.30;70.70;;;;;;5028359;28;20438;-75
2022/06/10 11:46:36;;;;;;;0.98;0.35;;;28.10;68.50;;;;;;5027073;28;20479;-73
2022/06/10 11:49:30;;;;;;;0.65;0.28;;;28.30;70.00;;;;;;5029414;28;20041;-74
2022/06/10 11:51:58;;;;;;;1.08;0.43;;;28.50;70.60;;;;;;5024454;28;20045;-74
2022/06/10 11:54:48;;;;;;;0.15;0.15;;;28.40;69.30;;;;;;5029711;28;20064;-74
2022/06/10 12:00:19;;;;;;;0.70;0.13;;;28.60;71.40;;;;;;5025702;28;20128;-74
2022/06/10 12:03:00;;;;;;;1.08;0.30;;;28.30;68.20;;;;;;5023975;28;20026;-74
2022/06/10 12:05:39;;;;;;;2.15;0.30;;;28.30;69.30;;;;;;5024411;28;20034;-74
2022/06/10 12:08:14;;;;;;;1.25;0.50;;;28.40;69.70;;;;;;5024350;28;20041;-74
2022/06/10 12:10:54;;;;;;;0.73;0.40;;;28.70;69.20;;;;;;5025270;28;20037;-74
2022/06/10 12:13:22;;;;;;;0.60;0.20;;;28.60;68.70;;;;;;5024638;28;20037;-74
2022/06/10 12:15:53;;;;;;;1.35;0.28;;;28.50;69.10;;;;;;5021430;28;20064;-74
2022/06/10 12:18:20;;;;;;;0.15;0.13;;;28.60;69.40;;;;;;5024802;28;20571;-74
2022/06/10 12:20:57;;;;;;;0.57;0.20;;;28.70;69.30;;;;;;5025725;28;20144;-74
2022/06/10 12:23:30;;;;;;;0.60;0.20;;;28.80;69.60;;;;;;5024617;28;20068;-74
2022/06/10 12:26:04;;;;;;;0.45;0.30;;;28.80;68.10;;;;;;5018933;28;20030;-74
2022/06/10 12:28:46;;;;;;;0.47;0.20;;;28.90;69.00;;;;;;5021911;28;20045;-74
2022/06/10 12:31:27;;;;;;;0.85;0.30;;;28.90;68.80;;;;;;5019515;28;20112;-74
2022/06/10 12:34:20;;;;;;;0.47;0.20;;;28.90;69.20;;;;;;5023756;28;20032;-74
2022/06/10 12:37:29;;;;;;;1.77;0.20;;;28.60;67.50;;;;;;5024395;28;20146;-74
2022/06/10 12:39:54;;;;;;;0.52;0.17;;;28.80;68.40;;;;;;5017939;28;20104;-74
2022/06/10 12:42:22;;;;;;;0.15;0.00;;;29.00;69.90;;;;;;5024429;28;20041;-74
2022/06/10 12:44:52;;;;;;;1.77;0.20;;;29.10;69.30;;;;;;5025004;28;20037;-74
2022/06/10 12:47:39;;;;;;;0.98;0.20;;;29.20;70.50;;;;;;5024757;28;20179;-74
2022/06/10 12:50:27;;;;;;;1.08;0.30;;;29.40;68.30;;;;;;5020500;28;20048;-74
2022/06/10 12:53:15;;;;;;;1.85;0.20;;;29.50;71.90;;;;;;5024090;28;20057;-74
2022/06/10 12:55:54;;;;;;;0.38;0.10;;;29.50;68.20;;;;;;5022731;28;20029;-74
2022/06/10 12:58:38;;;;;;;0.52;0.22;;;28.90;65.80;;;;;;5024602;28;20042;-73
2022/06/10 13:01:10;;;;;;;;;;;29.20;69.00;;;;;;5024184;28;20055;-73
2022/06/10 13:03:37;;;;;;;1.20;0.32;;;29.40;67.50;;;;;;5017984;28;20321;-74
2022/06/10 13:06:22;;;;;;;0.10;0.10;;;29.60;72.10;;;;;;5023523;28;20057;-74
2022/06/10 13:08:50;;;;;;;0.28;0.20;;;29.90;69.50;;;;;;5024892;28;20430;-75
2022/06/10 13:11:32;;;;;;;0.85;0.30;;;29.90;68.80;;;;;;5025273;28;20112;-75
2022/06/10 13:14:20;;;;;;;2.75;0.40;;;29.80;70.00;;;;;;5024766;28;20072;-74
2022/06/10 13:17:14;;;;;;;0.88;0.30;;;29.80;68.50;;;;;;5024570;28;20917;-75
2022/06/10 13:19:56;;;;;;;0.60;0.30;;;29.70;69.40;;;;;;5020300;28;20045;-75
2022/06/10 13:22:22;;;;;;;1.95;0.30;;;29.90;69.40;;;;;;5021055;28;20025;-74
2022/06/10 13:24:53;;;;;;;0.50;0.10;;;30.00;70.00;;;;;;5024842;28;20029;-74
2022/06/10 13:27:44;;;;;;;0.20;0.20;;;29.60;67.70;;;;;;5013923;28;20037;-74
2022/06/10 13:30:11;;;;;;;0.60;0.32;;;29.70;68.60;;;;;;5019016;28;20069;-75
2022/06/10 13:32:49;;;;;;;0.45;0.20;;;29.90;70.50;;;;;;5025003;28;20032;-74